createdAt,value
2022-11-24T00:00:12.801Z,100141.13
2022-11-24T00:00:44.356Z,100137.47
2022-11-24T00:01:27.767Z,100132.34
2022-11-24T00:01:59.362Z,100132.97
2022-11-24T00:02:31.281Z,100137.84
2022-11-24T00:03:04.844Z,100129.72
2022-11-24T00:03:36.647Z,100140.09
2022-11-24T00:04:08.320Z,100140.50
2022-11-24T00:04:39.981Z,100136.22
2022-11-24T00:05:11.769Z,100140.09
2022-11-24T00:05:43.673Z,100142.94
2022-11-24T00:06:16.065Z,100145.59
2022-11-24T00:06:47.975Z,100144.34
2022-11-24T00:07:19.584Z,100137.84
2022-11-24T00:07:51.421Z,100136.81
2022-11-24T00:08:23.128Z,100142.72
2022-11-24T00:08:55.450Z,100138.84
2022-11-24T00:09:27.167Z,100137.00
2022-11-24T00:09:58.753Z,100142.28
2022-11-24T00:10:30.371Z,100140.06
2022-11-24T00:11:06.544Z,100131.72
2022-11-24T00:11:38.145Z,100142.50
2022-11-24T00:12:09.933Z,100137.00
2022-11-24T00:12:41.526Z,100137.00
2022-11-24T00:13:13.166Z,100139.88
2022-11-24T00:13:45.319Z,100134.16
2022-11-24T00:14:16.969Z,100139.88
2022-11-24T00:14:48.642Z,100142.28
2022-11-24T00:15:20.195Z,100142.50
2022-11-24T00:15:51.745Z,100140.28
2022-11-24T00:16:25.953Z,100139.03
2022-11-24T00:16:57.612Z,100131.72
2022-11-24T00:17:29.475Z,100138.63
2022-11-24T00:18:01.044Z,100143.31
2022-11-24T00:18:32.662Z,100145.97
2022-11-24T00:19:06.656Z,100138.63
2022-11-24T00:19:38.194Z,100141.91
2022-11-24T00:20:10.197Z,100140.69
2022-11-24T00:20:41.758Z,100141.50
2022-11-24T00:21:14.204Z,100132.53
2022-11-24T00:21:45.792Z,100140.06
2022-11-24T00:22:17.343Z,100144.53
2022-11-24T00:22:49.143Z,100137.63
2022-11-24T00:23:20.720Z,100138.44
2022-11-24T00:23:52.968Z,100146.97
2022-11-24T00:24:24.663Z,100149.22
2022-11-24T00:24:56.249Z,100146.00
2022-11-24T00:25:27.993Z,100145.59
2022-11-24T00:26:06.417Z,100143.97
2022-11-24T00:26:38.144Z,100142.72
2022-11-24T00:27:09.699Z,100133.75
2022-11-24T00:27:41.247Z,100132.97
2022-11-24T00:28:12.835Z,100141.91
2022-11-24T00:28:45.615Z,100136.59
2022-11-24T00:29:17.201Z,100136.63
2022-11-24T00:29:48.856Z,100139.88
2022-11-24T00:30:20.536Z,100141.09
2022-11-24T00:30:52.316Z,100145.78
2022-11-24T00:31:25.155Z,100146.78
2022-11-24T00:31:57.255Z,100140.09
2022-11-24T00:32:29.675Z,100135.41
2022-11-24T00:33:01.464Z,100146.00
2022-11-24T00:33:33.071Z,100145.16
2022-11-24T00:34:07.352Z,100151.28
2022-11-24T00:34:38.909Z,100148.47
2022-11-24T00:35:10.472Z,100142.13
2022-11-24T00:35:42.241Z,100148.84
2022-11-24T00:36:14.662Z,100143.53
2022-11-24T00:36:46.232Z,100142.34
2022-11-24T00:37:17.760Z,100138.25
2022-11-24T00:37:49.552Z,100137.44
2022-11-24T00:38:21.101Z,100138.25
2022-11-24T00:39:06.892Z,100137.47
2022-11-24T00:39:38.520Z,100135.84
2022-11-24T00:40:10.465Z,100139.91
2022-11-24T00:40:42.809Z,100137.84
2022-11-24T00:41:14.445Z,100136.22
2022-11-24T00:41:45.999Z,100131.75
2022-11-24T00:42:18.609Z,100138.66
2022-11-24T00:42:50.228Z,100145.59
2022-11-24T00:43:21.785Z,100144.78
2022-11-24T00:43:53.461Z,100140.28
2022-11-24T00:44:25.308Z,100142.34
2022-11-24T00:44:56.868Z,100135.00
2022-11-24T00:45:28.498Z,100142.56
2022-11-24T00:46:00.340Z,100148.06
2022-11-24T00:46:32.119Z,100142.34
2022-11-24T00:47:03.800Z,100144.00
2022-11-24T00:47:35.493Z,100152.72
2022-11-24T00:48:07.054Z,100144.81
2022-11-24T00:48:38.634Z,100148.25
2022-11-24T00:49:10.250Z,100150.88
2022-11-24T00:49:41.812Z,100147.44
2022-11-24T00:50:13.547Z,100157.41
2022-11-24T00:50:45.173Z,100146.41
2022-11-24T00:51:18.010Z,100142.34
2022-11-24T00:51:49.763Z,100144.19
2022-11-24T00:52:21.297Z,100149.28
2022-11-24T00:52:52.848Z,100150.06
2022-11-24T00:53:25.498Z,100147.22
2022-11-24T00:54:00.941Z,100151.28
2022-11-24T00:54:32.789Z,100144.16
2022-11-24T00:55:05.205Z,100144.59
2022-11-24T00:55:36.767Z,100150.09
2022-11-24T00:56:09.262Z,100147.03
2022-11-24T00:56:40.848Z,100152.53
2022-11-24T00:57:12.412Z,100153.72
2022-11-24T00:57:44.151Z,100145.63
2022-11-24T00:58:16.045Z,100148.44
2022-11-24T00:58:47.661Z,100158.22
2022-11-24T00:59:19.243Z,100151.28
2022-11-24T00:59:50.893Z,100158.63
2022-11-24T01:00:22.524Z,100154.75
2022-11-24T01:00:54.384Z,100159.66
2022-11-24T01:01:28.363Z,100156.00
2022-11-24T01:02:00.246Z,100149.88
2022-11-24T01:02:31.967Z,100155.78
2022-11-24T01:03:03.679Z,100150.09
2022-11-24T01:03:35.474Z,100154.34
2022-11-24T01:04:07.046Z,100155.38
2022-11-24T01:04:38.675Z,100161.88
2022-11-24T01:05:10.638Z,100160.03
2022-11-24T01:05:42.554Z,100150.09
2022-11-24T01:06:19.388Z,100154.16
2022-11-24T01:06:51.233Z,100160.66
2022-11-24T01:07:22.846Z,100164.75
2022-11-24T01:07:54.682Z,100158.44
2022-11-24T01:08:26.322Z,100155.38
2022-11-24T01:08:58.344Z,100166.38
2022-11-24T01:09:29.933Z,100166.38
2022-11-24T01:10:01.738Z,100168.41
2022-11-24T01:10:33.532Z,100169.59
2022-11-24T01:11:07.928Z,100168.78
2022-11-24T01:12:17.788Z,100175.31
2022-11-24T01:12:50.303Z,100182.22
2022-11-24T01:13:21.915Z,100168.41
2022-11-24T01:13:59.053Z,100162.28
2022-11-24T01:14:32.007Z,100160.66
2022-11-24T01:15:03.954Z,100169.19
2022-11-24T01:15:36.605Z,100172.47
2022-11-24T01:16:15.974Z,100168.38
2022-11-24T01:16:47.677Z,100176.53
2022-11-24T01:17:19.320Z,100165.34
2022-11-24T01:17:50.956Z,100175.31
2022-11-24T01:18:22.534Z,100171.25
2022-11-24T01:18:54.503Z,100170.84
2022-11-24T01:19:26.069Z,100172.88
2022-11-24T01:19:57.720Z,100176.94
2022-11-24T01:20:30.944Z,100175.91
2022-11-24T01:21:08.639Z,100174.50
2022-11-24T01:21:41.774Z,100176.53
2022-11-24T01:22:13.775Z,100178.16
2022-11-24T01:22:48.593Z,100176.91
2022-11-24T01:23:20.204Z,100172.03
2022-11-24T01:23:51.777Z,100177.72
2022-11-24T01:24:23.352Z,100182.63
2022-11-24T01:24:55.051Z,100177.34
2022-11-24T01:25:26.891Z,100175.72
2022-11-24T01:25:58.464Z,100178.56
2022-11-24T01:26:30.028Z,100181.00
2022-11-24T01:27:01.606Z,100182.63
2022-11-24T01:27:33.220Z,100177.13
2022-11-24T01:28:04.999Z,100176.13
2022-11-24T01:28:38.459Z,100183.44
2022-11-24T01:29:12.335Z,100177.34
2022-11-24T01:29:43.948Z,100182.63
2022-11-24T01:30:15.708Z,100182.22
2022-11-24T01:30:57.360Z,100179.19
2022-11-24T01:31:29.033Z,100183.25
2022-11-24T01:32:00.681Z,100177.75
2022-11-24T01:32:33.381Z,100181.81
2022-11-24T01:33:05.234Z,100185.91
2022-11-24T01:33:37.277Z,100185.69
2022-11-24T01:34:08.945Z,100182.22
2022-11-24T01:34:40.518Z,100181.41
2022-11-24T01:35:12.373Z,100184.66
2022-11-24T01:35:43.966Z,100183.44
2022-11-24T01:36:15.631Z,100193.03
2022-11-24T01:36:47.295Z,100189.16
2022-11-24T01:37:18.901Z,100187.53
2022-11-24T01:37:50.481Z,100194.25
2022-11-24T01:38:22.081Z,100192.41
2022-11-24T01:38:53.653Z,100187.31
2022-11-24T01:39:25.381Z,100194.44
2022-11-24T01:39:57.055Z,100195.25
2022-11-24T01:40:28.619Z,100198.09
2022-11-24T01:41:06.536Z,100195.66
2022-11-24T01:41:38.226Z,100207.84
2022-11-24T01:42:09.845Z,100201.16
2022-11-24T01:42:48.560Z,100210.72
2022-11-24T01:43:21.450Z,100209.09
2022-11-24T01:43:55.353Z,100207.25
2022-11-24T01:44:29.432Z,100202.56
2022-11-24T01:45:27.447Z,100203.38
2022-11-24T01:46:03.846Z,100209.91
2022-11-24T01:46:41.214Z,100206.25
2022-11-24T01:47:30.775Z,100206.25
2022-11-24T01:48:05.031Z,100206.25
2022-11-24T01:48:40.768Z,100207.66
2022-11-24T01:49:16.076Z,100204.59
2022-11-24T01:50:00.214Z,100210.72
2022-11-24T01:50:32.141Z,100204.63
2022-11-24T01:51:13.216Z,100207.88
2022-11-24T01:51:54.988Z,100207.84
2022-11-24T01:52:36.399Z,100209.09
2022-11-24T01:53:08.369Z,100210.31
2022-11-24T01:53:42.348Z,100213.56
2022-11-24T01:54:34.195Z,100200.13
2022-11-24T01:55:14.577Z,100203.81
2022-11-24T01:55:46.347Z,100209.91
2022-11-24T01:56:18.265Z,100213.78
2022-11-24T01:56:53.382Z,100214.38
2022-11-24T01:57:29.828Z,100216.00
2022-11-24T01:58:05.758Z,100210.28
2022-11-24T01:58:38.362Z,100205.44
2022-11-24T01:59:11.470Z,100217.03
2022-11-24T01:59:44.879Z,100211.31
2022-11-24T02:00:17.064Z,100203.41
2022-11-24T02:00:49.319Z,100213.16
2022-11-24T02:01:20.920Z,100211.13
2022-11-24T02:01:53.338Z,100204.22
2022-11-24T02:02:26.507Z,100200.94
2022-11-24T02:02:59.054Z,100214.16
2022-11-24T02:03:34.979Z,100206.84
2022-11-24T02:04:10.436Z,100209.47
2022-11-24T02:04:42.290Z,100209.91
2022-11-24T02:05:16.665Z,100210.09
2022-11-24T02:05:53.940Z,100212.34
2022-11-24T02:06:27.932Z,100215.56
2022-11-24T02:07:02.269Z,100216.38
2022-11-24T02:07:35.231Z,100222.31
2022-11-24T02:08:14.926Z,100216.00
2022-11-24T02:08:58.412Z,100215.59
2022-11-24T02:09:34.470Z,100216.00
2022-11-24T02:10:11.024Z,100222.94
2022-11-24T02:10:43.086Z,100214.78
2022-11-24T02:11:14.768Z,100214.38
2022-11-24T02:11:47.222Z,100217.22
2022-11-24T02:12:18.800Z,100215.19
2022-11-24T02:12:51.827Z,100219.25
2022-11-24T02:13:23.700Z,100218.25
2022-11-24T02:13:56.223Z,100225.34
2022-11-24T02:14:28.484Z,100220.06
2022-11-24T02:15:00.211Z,100219.06
2022-11-24T02:15:32.318Z,100222.09
2022-11-24T02:16:06.586Z,100216.41
2022-11-24T02:16:39.617Z,100215.78
2022-11-24T02:17:11.449Z,100218.84
2022-11-24T02:17:43.122Z,100228.63
2022-11-24T02:18:14.647Z,100220.88
2022-11-24T02:18:46.357Z,100219.06
2022-11-24T02:19:27.407Z,100224.53
2022-11-24T02:20:01.687Z,100217.63
2022-11-24T02:20:34.202Z,100224.13
2022-11-24T02:21:06.225Z,100220.88
2022-11-24T02:21:37.774Z,100225.34
2022-11-24T02:22:18.426Z,100220.06
2022-11-24T02:23:24.834Z,100225.78
2022-11-24T02:24:04.295Z,100228.63
2022-11-24T02:24:47.254Z,100232.28
2022-11-24T02:25:46.367Z,100241.22
2022-11-24T02:26:32.681Z,100236.94
2022-11-24T02:27:04.504Z,100235.13
2022-11-24T02:27:36.402Z,100233.50
2022-11-24T02:28:10.825Z,100236.13
2022-11-24T02:28:42.417Z,100242.44
2022-11-24T02:29:14.559Z,100247.31
2022-11-24T02:29:46.404Z,100242.84
2022-11-24T02:30:18.099Z,100244.69
2022-11-24T02:30:50.672Z,100243.66
2022-11-24T02:31:22.367Z,100244.88
2022-11-24T02:31:58.457Z,100247.31
2022-11-24T02:32:31.257Z,100246.13
2022-11-24T02:33:03.245Z,100237.97
2022-11-24T02:33:35.334Z,100249.97
2022-11-24T02:34:06.891Z,100246.13
2022-11-24T02:34:38.631Z,100248.75
2022-11-24T02:35:11.135Z,100247.94
2022-11-24T02:35:42.964Z,100249.97
2022-11-24T02:36:14.527Z,100245.69
2022-11-24T02:36:46.383Z,100245.50
2022-11-24T02:37:17.924Z,100246.94
2022-11-24T02:37:49.485Z,100247.75
2022-11-24T02:38:32.770Z,100256.69
2022-11-24T02:39:09.732Z,100255.44
2022-11-24T02:39:41.303Z,100248.13
2022-11-24T02:40:16.477Z,100253.03
2022-11-24T02:40:49.312Z,100249.78
2022-11-24T02:41:22.840Z,100248.97
2022-11-24T02:41:57.538Z,100254.66
2022-11-24T02:42:32.845Z,100252.22
2022-11-24T02:43:11.385Z,100250.59
2022-11-24T02:43:46.938Z,100248.97
2022-11-24T02:44:20.563Z,100257.50
2022-11-24T02:44:55.977Z,100253.44
2022-11-24T02:45:27.973Z,100251.00
2022-11-24T02:45:59.609Z,100250.19
2022-11-24T02:46:31.341Z,100251.00
2022-11-24T02:47:07.956Z,100241.03
2022-11-24T02:47:40.261Z,100241.44
2022-11-24T02:48:14.639Z,100248.16
2022-11-24T02:48:46.263Z,100245.28
2022-11-24T02:49:17.860Z,100247.13
2022-11-24T02:49:49.480Z,100242.84
2022-11-24T02:50:21.043Z,100244.09
2022-11-24T02:50:52.686Z,100244.06
2022-11-24T02:51:24.368Z,100242.84
2022-11-24T02:51:56.916Z,100240.81
2022-11-24T02:52:28.486Z,100246.94
2022-11-24T02:53:00.085Z,100248.75
2022-11-24T02:53:31.932Z,100251.78
2022-11-24T02:54:03.940Z,100252.22
2022-11-24T02:54:35.883Z,100240.81
2022-11-24T02:55:08.202Z,100243.84
2022-11-24T02:55:39.762Z,100244.47
2022-11-24T02:56:11.472Z,100251.00
2022-11-24T02:56:43.104Z,100243.69
2022-11-24T02:57:15.174Z,100240.41
2022-11-24T02:57:47.167Z,100242.03
2022-11-24T02:58:18.731Z,100237.34
2022-11-24T02:58:50.337Z,100248.97
2022-11-24T02:59:21.910Z,100244.47
2022-11-24T02:59:53.503Z,100242.47
2022-11-24T03:00:25.153Z,100241.22
2022-11-24T03:00:57.340Z,100241.44
2022-11-24T03:01:28.929Z,100238.78
2022-11-24T03:02:00.769Z,100240.84
2022-11-24T03:02:32.655Z,100241.22
2022-11-24T03:03:04.591Z,100235.31
2022-11-24T03:03:36.550Z,100237.97
2022-11-24T03:04:08.383Z,100236.34
2022-11-24T03:04:39.980Z,100237.16
2022-11-24T03:05:12.171Z,100233.28
2022-11-24T03:05:43.784Z,100236.75
2022-11-24T03:06:15.356Z,100231.06
2022-11-24T03:06:46.982Z,100233.06
2022-11-24T03:07:18.625Z,100237.97
2022-11-24T03:07:50.337Z,100243.25
2022-11-24T03:08:21.929Z,100227.78
2022-11-24T03:08:53.580Z,100237.16
2022-11-24T03:09:25.556Z,100235.91
2022-11-24T03:09:57.513Z,100240.81
2022-11-24T03:10:29.438Z,100241.22
2022-11-24T03:11:02.211Z,100237.97
2022-11-24T03:11:33.954Z,100236.94
2022-11-24T03:12:06.000Z,100239.19
2022-11-24T03:12:37.625Z,100238.34
2022-11-24T03:13:09.402Z,100237.56
2022-11-24T03:13:40.960Z,100237.78
2022-11-24T03:14:12.640Z,100244.28
2022-11-24T03:14:44.225Z,100242.03
2022-11-24T03:15:15.871Z,100235.72
2022-11-24T03:15:47.509Z,100245.91
2022-11-24T03:16:19.167Z,100239.19
2022-11-24T03:16:50.865Z,100247.94
2022-11-24T03:17:22.559Z,100240.81
2022-11-24T03:17:54.884Z,100240.19
2022-11-24T03:18:26.488Z,100241.22
2022-11-24T03:18:58.147Z,100243.25
2022-11-24T03:19:29.724Z,100241.63
2022-11-24T03:20:04.902Z,100243.66
2022-11-24T03:20:37.093Z,100245.50
2022-11-24T03:21:09.142Z,100235.31
2022-11-24T03:21:40.884Z,100237.16
2022-11-24T03:22:13.802Z,100239.59
2022-11-24T03:22:45.340Z,100242.84
2022-11-24T03:23:17.197Z,100239.41
2022-11-24T03:23:48.862Z,100231.66
2022-11-24T03:24:20.530Z,100240.00
2022-11-24T03:24:52.114Z,100246.31
2022-11-24T03:25:23.976Z,100242.88
2022-11-24T03:25:55.536Z,100238.38
2022-11-24T03:26:27.948Z,100242.88
2022-11-24T03:26:59.507Z,100242.06
2022-11-24T03:27:31.401Z,100240.63
2022-11-24T03:28:03.028Z,100246.13
2022-11-24T03:28:34.684Z,100255.28
2022-11-24T03:29:06.310Z,100244.69
2022-11-24T03:29:37.965Z,100242.66
2022-11-24T03:30:10.015Z,100255.88
2022-11-24T03:30:41.625Z,100246.13
2022-11-24T03:31:13.783Z,100244.47
2022-11-24T03:31:45.617Z,100243.25
2022-11-24T03:32:17.230Z,100234.91
2022-11-24T03:32:51.626Z,100243.28
2022-11-24T03:33:23.237Z,100243.28
2022-11-24T03:33:55.054Z,100241.63
2022-11-24T03:34:26.628Z,100239.19
2022-11-24T03:34:58.354Z,100244.28
2022-11-24T03:35:29.951Z,100240.00
2022-11-24T03:36:01.713Z,100242.66
2022-11-24T03:36:33.320Z,100243.88
2022-11-24T03:37:04.954Z,100244.06
2022-11-24T03:37:37.306Z,100245.09
2022-11-24T03:38:09.043Z,100241.03
2022-11-24T03:38:40.610Z,100247.53
2022-11-24T03:39:12.235Z,100242.25
2022-11-24T03:39:43.813Z,100247.34
2022-11-24T03:40:16.061Z,100253.03
2022-11-24T03:40:47.916Z,100252.03
2022-11-24T03:41:19.494Z,100243.88
2022-11-24T03:41:53.948Z,100245.91
2022-11-24T03:42:25.541Z,100248.97
2022-11-24T03:42:57.122Z,100255.88
2022-11-24T03:43:28.976Z,100240.00
2022-11-24T03:44:00.661Z,100246.13
2022-11-24T03:44:32.747Z,100252.63
2022-11-24T03:45:29.847Z,100259.16
2022-11-24T03:45:57.012Z,100255.47
2022-11-24T03:46:28.776Z,100261.56
2022-11-24T03:47:00.460Z,100259.56
2022-11-24T03:47:32.196Z,100267.28
2022-11-24T03:48:04.114Z,100258.09
2022-11-24T03:48:35.843Z,100251.78
2022-11-24T03:49:07.465Z,100261.34
2022-11-24T03:49:40.300Z,100260.75
2022-11-24T03:50:12.081Z,100264.41
2022-11-24T03:50:44.054Z,100260.38
2022-11-24T03:51:15.692Z,100259.53
2022-11-24T03:51:47.246Z,100259.72
2022-11-24T03:52:18.801Z,100259.53
2022-11-24T03:52:50.462Z,100261.19
2022-11-24T03:53:22.659Z,100259.56
2022-11-24T03:53:54.256Z,100259.97
2022-11-24T03:54:25.791Z,100265.66
2022-11-24T03:54:57.565Z,100263.81
2022-11-24T03:55:29.571Z,100267.06
2022-11-24T03:56:02.101Z,100262.81
2022-11-24T03:56:33.707Z,100269.72
2022-11-24T03:57:05.502Z,100271.16
2022-11-24T03:57:37.091Z,100270.13
2022-11-24T03:58:08.668Z,100266.63
2022-11-24T03:58:40.249Z,100276.44
2022-11-24T03:59:11.796Z,100272.56
2022-11-24T03:59:43.339Z,100275.00
2022-11-24T04:00:15.699Z,100273.38
2022-11-24T04:00:51.299Z,100271.75
2022-11-24T04:01:23.104Z,100276.63
2022-11-24T04:01:54.712Z,100272.97
2022-11-24T04:02:26.320Z,100274.81
2022-11-24T04:02:57.946Z,100266.88
2022-11-24T04:03:29.761Z,100268.50
2022-11-24T04:04:01.351Z,100264.22
2022-11-24T04:04:33.201Z,100275.22
2022-11-24T04:05:05.845Z,100272.97
2022-11-24T04:05:37.484Z,100271.75
2022-11-24T04:06:09.094Z,100270.13
2022-11-24T04:06:40.970Z,100278.06
2022-11-24T04:07:12.651Z,100288.84
2022-11-24T04:07:44.365Z,100285.19
2022-11-24T04:08:16.569Z,100286.00
2022-11-24T04:08:48.177Z,100283.16
2022-11-24T04:09:19.741Z,100287.41
2022-11-24T04:09:51.308Z,100290.47
2022-11-24T04:10:24.208Z,100277.66
2022-11-24T04:10:55.964Z,100285.59
2022-11-24T04:11:45.962Z,100290.47
2022-11-24T04:12:36.474Z,100288.03
2022-11-24T04:13:16.107Z,100288.22
2022-11-24T04:13:47.998Z,100291.28
2022-11-24T04:14:19.704Z,100296.16
2022-11-24T04:14:51.246Z,100290.88
2022-11-24T04:15:23.437Z,100286.00
2022-11-24T04:15:55.147Z,100293.72
2022-11-24T04:16:26.781Z,100288.03
2022-11-24T04:16:58.366Z,100289.66
2022-11-24T04:17:29.830Z,100296.38
2022-11-24T04:18:01.304Z,100296.16
2022-11-24T04:18:33.064Z,100288.44
2022-11-24T04:19:04.648Z,100301.66
2022-11-24T04:19:36.102Z,100295.34
2022-11-24T04:20:08.469Z,100295.75
2022-11-24T04:20:40.969Z,100300.25
2022-11-24T04:21:12.471Z,100306.75
2022-11-24T04:21:43.990Z,100300.84
2022-11-24T04:22:15.581Z,100307.97
2022-11-24T04:22:47.096Z,100307.56
2022-11-24T04:23:18.957Z,100292.09
2022-11-24T04:23:50.440Z,100303.09
2022-11-24T04:24:22.062Z,100306.97
2022-11-24T04:24:53.534Z,100305.94
2022-11-24T04:25:25.099Z,100309.19
2022-11-24T04:25:56.572Z,100303.50
2022-11-24T04:26:28.092Z,100313.69
2022-11-24T04:26:59.552Z,100308.78
2022-11-24T04:27:33.041Z,100310.00
2022-11-24T04:28:04.997Z,100311.84
2022-11-24T04:28:36.796Z,100305.94
2022-11-24T04:29:09.478Z,100311.63
2022-11-24T04:29:41.062Z,100313.88
2022-11-24T04:30:12.864Z,100310.00
2022-11-24T04:30:45.177Z,100316.72
2022-11-24T04:31:17.088Z,100310.81
2022-11-24T04:31:48.685Z,100315.09
2022-11-24T04:32:20.502Z,100317.75
2022-11-24T04:32:52.182Z,100322.63
2022-11-24T04:33:24.012Z,100314.50
2022-11-24T04:33:55.553Z,100317.34
2022-11-24T04:34:27.022Z,100311.22
2022-11-24T04:34:58.501Z,100317.53
2022-11-24T04:35:30.107Z,100316.94
2022-11-24T04:36:01.644Z,100317.94
2022-11-24T04:36:33.133Z,100324.25
2022-11-24T04:37:04.744Z,100318.56
2022-11-24T04:37:36.352Z,100316.72
2022-11-24T04:38:07.931Z,100320.34
2022-11-24T04:39:22.719Z,100320.19
2022-11-24T04:39:31.632Z,100323.03
2022-11-24T04:40:03.876Z,100320.78
2022-11-24T04:40:35.419Z,100322.63
2022-11-24T04:41:06.912Z,100325.28
2022-11-24T04:41:38.393Z,100326.69
2022-11-24T04:42:09.898Z,100324.25
2022-11-24T04:42:41.744Z,100328.13
2022-11-24T04:43:13.241Z,100334.03
2022-11-24T04:43:44.762Z,100322.41
2022-11-24T04:44:16.412Z,100327.09
2022-11-24T04:44:48.103Z,100327.09
2022-11-24T04:45:19.588Z,100327.09
2022-11-24T04:45:51.065Z,100327.91
2022-11-24T04:46:22.574Z,100334.44
2022-11-24T04:46:54.273Z,100326.69
2022-11-24T04:47:26.632Z,100335.03
2022-11-24T04:47:58.139Z,100327.50
2022-11-24T04:48:29.673Z,100328.72
2022-11-24T04:49:01.517Z,100330.78
2022-11-24T04:49:33.252Z,100325.47
2022-11-24T04:50:07.726Z,100325.88
2022-11-24T04:50:39.976Z,100325.88
2022-11-24T04:51:13.364Z,100336.25
2022-11-24T04:51:44.929Z,100328.31
2022-11-24T04:52:17.954Z,100326.28
2022-11-24T04:52:49.473Z,100328.72
2022-11-24T04:53:21.085Z,100331.59
2022-11-24T04:53:52.656Z,100331.78
2022-11-24T04:54:24.128Z,100336.88
2022-11-24T04:54:55.591Z,100344.41
2022-11-24T04:55:27.160Z,100342.56
2022-11-24T04:55:59.031Z,100336.66
2022-11-24T04:56:30.524Z,100334.44
2022-11-24T04:57:02.025Z,100344.59
2022-11-24T04:57:33.524Z,100343.38
2022-11-24T04:58:08.274Z,100349.50
2022-11-24T04:58:39.790Z,100341.75
2022-11-24T04:59:16.114Z,100347.25
2022-11-24T04:59:47.652Z,100342.16
2022-11-24T05:00:19.533Z,100345.81
2022-11-24T05:00:51.033Z,100348.28
2022-11-24T05:01:22.691Z,100343.78
2022-11-24T05:01:54.498Z,100350.31
2022-11-24T05:02:25.980Z,100357.22
2022-11-24T05:02:57.467Z,100345.63
2022-11-24T05:03:28.948Z,100354.97
2022-11-24T05:04:00.533Z,100349.09
2022-11-24T05:04:32.468Z,100358.03
2022-11-24T05:05:05.792Z,100350.72
2022-11-24T05:05:37.300Z,100355.59
2022-11-24T05:06:08.987Z,100349.91
2022-11-24T05:06:40.544Z,100354.38
2022-11-24T05:07:18.879Z,100353.16
2022-11-24T05:07:50.980Z,100351.13
2022-11-24T05:08:22.451Z,100351.13
2022-11-24T05:08:54.777Z,100348.69
2022-11-24T05:09:41.994Z,100356.81
2022-11-24T05:10:36.206Z,100345.63
2022-11-24T05:11:07.876Z,100354.78
2022-11-24T05:11:39.350Z,100350.72
2022-11-24T05:12:11.067Z,100349.09
2022-11-24T05:12:47.052Z,100349.69
2022-11-24T05:13:21.477Z,100354.63
2022-11-24T05:13:53.230Z,100348.06
2022-11-24T05:14:24.927Z,100352.34
2022-11-24T05:14:58.232Z,100355.00
2022-11-24T05:15:29.785Z,100347.47
2022-11-24T05:16:01.791Z,100353.75
2022-11-24T05:16:33.500Z,100351.53
2022-11-24T05:17:05.044Z,100351.53
2022-11-24T05:17:38.336Z,100353.56
2022-11-24T05:18:12.538Z,100346.22
2022-11-24T05:18:44.131Z,100349.50
2022-11-24T05:19:15.628Z,100349.91
2022-11-24T05:19:47.108Z,100345.00
2022-11-24T05:20:19.117Z,100354.78
2022-11-24T05:20:50.641Z,100348.69
2022-11-24T05:21:22.116Z,100354.16
2022-11-24T05:21:54.335Z,100356.41
2022-11-24T05:22:27.885Z,100350.28
2022-11-24T05:23:06.017Z,100360.06
2022-11-24T05:23:37.506Z,100354.38
2022-11-24T05:24:10.715Z,100353.56
2022-11-24T05:24:42.171Z,100355.38
2022-11-24T05:25:14.318Z,100357.63
2022-11-24T05:25:47.803Z,100363.75
2022-11-24T05:26:19.573Z,100361.28
2022-11-24T05:26:51.025Z,100366.59
2022-11-24T05:27:22.600Z,100366.81
2022-11-24T05:27:54.134Z,100373.13
2022-11-24T05:28:25.574Z,100364.56
2022-11-24T05:28:57.086Z,100369.88
2022-11-24T05:29:28.669Z,100370.28
2022-11-24T05:30:00.172Z,100367.03
2022-11-24T05:30:32.174Z,100373.13
2022-11-24T05:31:04.381Z,100373.94
2022-11-24T05:31:35.923Z,100374.56
2022-11-24T05:32:07.452Z,100372.94
2022-11-24T05:32:38.894Z,100369.88
2022-11-24T05:33:23.018Z,100377.63
2022-11-24T05:33:54.533Z,100373.13
2022-11-24T05:34:26.310Z,100367.44
2022-11-24T05:34:58.241Z,100370.69
2022-11-24T05:35:30.226Z,100383.31
2022-11-24T05:36:03.940Z,100366.63
2022-11-24T05:36:53.475Z,100376.81
2022-11-24T05:37:25.764Z,100374.16
2022-11-24T05:37:58.651Z,100383.13
2022-11-24T05:38:30.870Z,100382.31
2022-11-24T05:39:02.326Z,100375.16
2022-11-24T05:39:37.453Z,100380.88
2022-11-24T05:40:09.190Z,100385.97
2022-11-24T05:40:40.782Z,100386.56
2022-11-24T05:41:12.201Z,100383.91
2022-11-24T05:41:43.768Z,100386.56
2022-11-24T05:42:33.635Z,100379.66
2022-11-24T05:43:05.171Z,100386.53
2022-11-24T05:43:36.689Z,100392.69
2022-11-24T05:44:08.135Z,100395.94
2022-11-24T05:44:39.676Z,100394.31
2022-11-24T05:45:13.797Z,100394.50
2022-11-24T05:45:45.255Z,100384.94
2022-11-24T05:46:16.777Z,100393.91
2022-11-24T05:46:48.453Z,100397.38
2022-11-24T05:47:20.809Z,100397.38
2022-11-24T05:47:53.224Z,100401.03
2022-11-24T05:48:24.881Z,100406.31
2022-11-24T05:48:56.456Z,100396.38
2022-11-24T05:49:28.086Z,100401.47
2022-11-24T05:49:59.516Z,100406.16
2022-11-24T05:50:30.989Z,100403.25
2022-11-24T05:51:07.862Z,100403.91
2022-11-24T05:51:40.677Z,100404.91
2022-11-24T05:52:12.315Z,100412.22
2022-11-24T05:52:43.793Z,100405.91
2022-11-24T05:53:15.236Z,100405.91
2022-11-24T05:53:46.759Z,100407.97
2022-11-24T05:54:18.704Z,100418.38
2022-11-24T05:54:50.203Z,100410.81
2022-11-24T05:55:21.814Z,100415.72
2022-11-24T05:55:53.276Z,100415.13
2022-11-24T05:56:24.747Z,100420.41
2022-11-24T05:56:56.258Z,100414.28
2022-11-24T05:57:27.870Z,100420.41
2022-11-24T05:58:04.932Z,100420.19
2022-11-24T05:58:36.555Z,100418.78
2022-11-24T05:59:10.012Z,100422.44
2022-11-24T05:59:41.700Z,100422.84
2022-11-24T06:00:13.720Z,100419.78
2022-11-24T06:00:45.215Z,100426.09
2022-11-24T06:01:16.678Z,100424.88
2022-11-24T06:01:48.310Z,100426.09
2022-11-24T06:02:20.008Z,100426.50
2022-11-24T06:02:51.684Z,100425.50
2022-11-24T06:03:23.761Z,100426.09
2022-11-24T06:03:55.198Z,100426.09
2022-11-24T06:04:26.677Z,100423.66
2022-11-24T06:04:58.207Z,100430.59
2022-11-24T06:05:30.030Z,100434.25
2022-11-24T06:06:01.624Z,100432.63
2022-11-24T06:06:33.117Z,100428.34
2022-11-24T06:07:07.319Z,100435.06
2022-11-24T06:07:38.914Z,100435.69
2022-11-24T06:08:10.369Z,100434.66
2022-11-24T06:08:41.803Z,100433.44
2022-11-24T06:09:13.269Z,100443.81
2022-11-24T06:09:44.856Z,100437.50
2022-11-24T06:10:17.093Z,100441.59
2022-11-24T06:10:48.513Z,100439.94
2022-11-24T06:11:20.042Z,100437.91
2022-11-24T06:11:51.521Z,100439.53
2022-11-24T06:12:23.022Z,100443.22
2022-11-24T06:12:54.568Z,100440.97
2022-11-24T06:13:26.081Z,100438.94
2022-11-24T06:13:57.782Z,100441.38
2022-11-24T06:14:29.475Z,100442.63
2022-11-24T06:15:01.149Z,100441.97
2022-11-24T06:15:33.815Z,100439.94